Morse Bluff, Nebraska
Current Conditions -  °F | °C
As of 8:35 PM on Friday 28 Nov 2014 (Local Time) from KFET Reporting Station
Clear Clear  
Wind Chill: 40°   Ceiling: Unl
Heat Index: 40°   Visibility: 10mi
Dew Point: 31°   Wind: 0mph
Humidity: 71%   Direction: NA
Pressure: 29.62"   Gusts: NA
Location:  41.43°N, 96.77°W
Report Text: KFET 290235Z AUTO 00000KT 10SM CLR 04/M01 A2962 RMK AO2 T00421006
Loading
Personal Weather Stations






























Interactive Weather Map New forecast layout! Learn more

10-Day Weather Forecast

Advertisements
Track Severe Weather on mobile